createdAt,value
2018-06-24T00:02:31.284Z,70.40
2018-06-24T00:05:00.323Z,70.50
2018-06-24T00:07:28.847Z,70.50
2018-06-24T00:09:57.336Z,70.40
2018-06-24T00:14:54.190Z,70.80
2018-06-24T00:17:22.905Z,71.00
2018-06-24T00:24:47.773Z,71.80
2018-06-24T00:29:44.420Z,71.90
2018-06-24T00:32:12.931Z,72.30
2018-06-24T00:34:41.631Z,72.70
2018-06-24T00:37:10.101Z,73.00
2018-06-24T00:39:38.715Z,72.80
2018-06-24T00:42:07.196Z,73.40
2018-06-24T00:44:35.743Z,73.60
2018-06-24T00:49:32.752Z,74.20
2018-06-24T00:52:01.197Z,74.50
2018-06-24T00:54:29.679Z,74.90
2018-06-24T00:56:58.124Z,75.20
2018-06-24T01:02:00.151Z,75.60
2018-06-24T01:04:28.630Z,75.60
2018-06-24T01:06:57.113Z,75.70
2018-06-24T01:09:25.579Z,75.80
2018-06-24T01:11:54.023Z,76.20
2018-06-24T01:14:22.468Z,76.40
2018-06-24T01:16:50.963Z,76.40
2018-06-24T01:19:19.396Z,77.20
2018-06-24T01:24:16.043Z,76.10
2018-06-24T01:26:44.519Z,76.00
2018-06-24T01:29:12.932Z,75.60
2018-06-24T01:31:41.408Z,76.10
2018-06-24T01:34:09.895Z,76.90
2018-06-24T01:36:38.422Z,76.90
2018-06-24T01:39:07.057Z,77.30
2018-06-24T01:41:35.570Z,77.80
2018-06-24T01:44:04.018Z,77.90
2018-06-24T01:46:32.524Z,78.10
2018-06-24T01:49:00.986Z,78.50
2018-06-24T01:51:29.460Z,77.60
2018-06-24T01:53:57.940Z,77.60
2018-06-24T01:56:26.393Z,77.50
2018-06-24T01:58:54.867Z,77.30
2018-06-24T02:01:23.398Z,77.70
2018-06-24T02:03:51.995Z,77.70
2018-06-24T02:06:20.468Z,78.10
2018-06-24T02:11:17.029Z,77.90
2018-06-24T02:13:45.478Z,78.40
2018-06-24T02:16:13.904Z,78.50
2018-06-24T02:18:42.419Z,78.80
2018-06-24T02:21:10.935Z,78.60
2018-06-24T02:23:39.448Z,78.20
2018-06-24T02:26:08.047Z,78.00
2018-06-24T02:28:36.895Z,78.00
2018-06-24T02:31:05.589Z,77.90
2018-06-24T02:33:34.184Z,77.80
2018-06-24T02:36:02.686Z,77.40
2018-06-24T02:38:31.193Z,77.90
2018-06-24T02:40:59.997Z,78.30
2018-06-24T02:45:56.670Z,78.20
2018-06-24T02:50:53.406Z,78.70
2018-06-24T02:53:21.894Z,78.00
2018-06-24T02:55:50.360Z,77.40
2018-06-24T03:00:47.027Z,78.00
2018-06-24T03:03:15.512Z,78.30
2018-06-24T03:05:44.012Z,78.40
2018-06-24T03:08:12.519Z,78.40
2018-06-24T03:10:41.006Z,78.30
2018-06-24T03:15:37.649Z,79.00
2018-06-24T03:18:06.188Z,79.70
2018-06-24T03:20:34.638Z,79.70
2018-06-24T03:23:03.119Z,80.10
2018-06-24T03:25:31.610Z,80.30
2018-06-24T03:28:00.099Z,80.00
2018-06-24T03:30:28.547Z,80.50
2018-06-24T03:32:57.046Z,80.80
2018-06-24T03:35:25.471Z,81.00
2018-06-24T03:37:53.940Z,81.30
2018-06-24T03:42:50.559Z,81.60
2018-06-24T03:45:19.005Z,81.60
2018-06-24T03:47:47.473Z,81.20
2018-06-24T03:50:15.999Z,80.80
2018-06-24T03:52:44.421Z,80.80
2018-06-24T03:55:12.876Z,80.30
2018-06-24T03:57:41.289Z,79.80
2018-06-24T04:00:09.808Z,79.60
2018-06-24T04:02:38.341Z,79.30
2018-06-24T04:05:06.907Z,79.50
2018-06-24T04:07:35.396Z,79.70
2018-06-24T04:10:03.971Z,79.80
2018-06-24T04:12:32.432Z,79.50
2018-06-24T04:15:00.967Z,78.80
2018-06-24T04:17:29.479Z,78.60
2018-06-24T04:19:58.073Z,78.60
2018-06-24T04:22:26.550Z,78.50
2018-06-24T04:24:55.077Z,78.10
2018-06-24T04:27:23.563Z,77.70
2018-06-24T04:29:52.091Z,77.70
2018-06-24T04:32:20.561Z,77.70
2018-06-24T04:34:49.056Z,76.80
2018-06-24T04:37:17.547Z,76.40
2018-06-24T04:39:46.067Z,75.60
2018-06-24T04:42:14.568Z,75.10
2018-06-24T04:44:43.079Z,74.90
2018-06-24T04:47:11.566Z,74.40
2018-06-24T04:52:08.202Z,76.00
2018-06-24T04:54:36.691Z,75.90
2018-06-24T04:57:05.280Z,76.30
2018-06-24T04:59:34.063Z,75.90
2018-06-24T05:02:02.551Z,75.30
2018-06-24T05:04:31.060Z,75.20
2018-06-24T05:06:59.529Z,75.90
2018-06-24T05:11:56.188Z,76.90
2018-06-24T05:14:24.644Z,77.20
2018-06-24T05:16:53.111Z,77.90
2018-06-24T05:19:21.616Z,78.50
2018-06-24T05:21:50.098Z,78.70
2018-06-24T05:24:18.548Z,78.20
2018-06-24T05:26:49.456Z,78.60
2018-06-24T05:29:17.884Z,78.40
2018-06-24T05:31:46.364Z,78.00
2018-06-24T05:34:14.848Z,78.00
2018-06-24T05:36:43.311Z,78.20
2018-06-24T05:39:12.718Z,77.90
2018-06-24T05:44:09.717Z,76.20
2018-06-24T05:46:38.197Z,76.10
2018-06-24T05:51:34.852Z,74.70
2018-06-24T05:54:03.345Z,73.90
2018-06-24T05:56:31.776Z,72.80
2018-06-24T05:59:00.210Z,71.70
2018-06-24T06:01:28.672Z,71.80
2018-06-24T06:03:57.123Z,71.70
2018-06-24T06:06:25.607Z,71.60
2018-06-24T06:08:54.041Z,72.70
2018-06-24T06:13:51.004Z,73.90
2018-06-24T06:16:19.141Z,74.10
2018-06-24T06:18:47.608Z,73.90
2018-06-24T06:21:16.064Z,73.10
2018-06-24T06:23:44.499Z,71.40
2018-06-24T06:26:13.038Z,71.50
2018-06-24T06:28:41.423Z,70.30
2018-06-24T06:31:09.873Z,70.00
2018-06-24T06:33:38.333Z,70.70
2018-06-24T06:36:06.783Z,70.90
2018-06-24T06:38:35.239Z,71.30
2018-06-24T06:41:03.714Z,71.80
2018-06-24T06:43:32.207Z,70.90
2018-06-24T06:46:00.659Z,71.70
2018-06-24T06:48:29.116Z,71.80
2018-06-24T06:50:57.588Z,71.80
2018-06-24T06:53:26.139Z,71.80
2018-06-24T06:55:54.592Z,72.00
2018-06-24T06:58:23.049Z,70.50
2018-06-24T07:00:51.495Z,70.40
2018-06-24T07:05:48.156Z,69.80
2018-06-24T07:08:16.539Z,70.20
2018-06-24T07:10:44.989Z,69.90
2018-06-24T07:13:13.459Z,70.30
2018-06-24T07:18:10.159Z,69.30
2018-06-24T07:20:38.644Z,68.90
2018-06-24T07:23:07.180Z,69.10
2018-06-24T07:25:35.643Z,68.50
2018-06-24T07:28:04.121Z,68.80
2018-06-24T07:30:32.636Z,68.70
2018-06-24T07:33:01.176Z,68.00
2018-06-24T07:35:29.633Z,68.30
2018-06-24T07:37:58.119Z,68.00
2018-06-24T07:40:26.708Z,67.70
2018-06-24T07:42:55.233Z,67.90
2018-06-24T07:45:23.739Z,68.40
2018-06-24T07:47:52.242Z,68.80
2018-06-24T07:50:20.756Z,68.60
2018-06-24T07:52:49.226Z,68.00
2018-06-24T07:55:17.710Z,66.90
2018-06-24T07:57:46.575Z,67.40
2018-06-24T08:02:43.202Z,67.10
2018-06-24T08:05:11.764Z,67.40
2018-06-24T08:07:40.234Z,66.20
2018-06-24T08:12:36.907Z,65.60
2018-06-24T08:17:33.601Z,65.30
2018-06-24T08:20:02.115Z,62.30
2018-06-24T08:22:30.631Z,61.60
2018-06-24T08:24:59.125Z,62.00
2018-06-24T08:27:27.647Z,64.80
2018-06-24T08:29:56.140Z,64.60
2018-06-24T08:32:24.631Z,65.10
2018-06-24T08:34:53.144Z,64.10
2018-06-24T08:37:21.660Z,63.40
2018-06-24T08:42:18.325Z,62.40
2018-06-24T08:44:46.802Z,62.20
2018-06-24T08:47:15.320Z,61.30
2018-06-24T08:54:40.120Z,59.70
2018-06-24T08:57:08.635Z,58.80
2018-06-24T08:59:37.127Z,59.20
2018-06-24T09:02:05.739Z,56.60
2018-06-24T09:04:34.274Z,57.00
2018-06-24T09:07:02.776Z,55.80
2018-06-24T09:09:31.244Z,55.10
2018-06-24T09:11:59.763Z,55.80
2018-06-24T09:14:28.282Z,54.90
2018-06-24T09:16:56.775Z,54.70
2018-06-24T09:19:25.282Z,54.70
2018-06-24T09:21:53.803Z,54.20
2018-06-24T09:24:22.317Z,53.10
2018-06-24T09:26:50.843Z,53.40
2018-06-24T09:29:19.383Z,53.70
2018-06-24T09:31:47.903Z,53.00
2018-06-24T09:36:44.582Z,52.90
2018-06-24T09:41:41.653Z,54.20
2018-06-24T09:44:10.166Z,53.50
2018-06-24T09:46:38.678Z,53.70
2018-06-24T09:49:07.491Z,54.50
2018-06-24T09:51:36.716Z,54.00
2018-06-24T09:54:05.597Z,53.60
2018-06-24T09:56:34.107Z,54.50
2018-06-24T09:59:02.661Z,53.70
2018-06-24T10:01:31.158Z,53.90
2018-06-24T10:03:59.638Z,54.00
2018-06-24T10:06:28.160Z,53.30
2018-06-24T10:11:24.817Z,53.60
2018-06-24T10:13:53.345Z,53.30
2018-06-24T10:16:21.827Z,52.50
2018-06-24T10:21:18.451Z,51.60
2018-06-24T10:23:46.919Z,52.00
2018-06-24T10:26:15.355Z,51.10
2018-06-24T10:28:43.822Z,51.30
2018-06-24T10:31:12.275Z,51.10
2018-06-24T10:33:40.735Z,50.50
2018-06-24T10:36:09.203Z,50.70
2018-06-24T10:38:37.658Z,50.60
2018-06-24T10:43:34.414Z,51.00
2018-06-24T10:46:02.877Z,51.50
2018-06-24T10:48:31.379Z,51.20
2018-06-24T10:50:59.836Z,51.30
2018-06-24T10:53:28.419Z,51.30
2018-06-24T10:58:25.131Z,51.90
2018-06-24T11:00:53.916Z,50.80
2018-06-24T11:05:50.578Z,50.70
2018-06-24T11:08:19.176Z,51.40
2018-06-24T11:10:47.713Z,50.70
2018-06-24T11:13:16.166Z,50.60
2018-06-24T11:23:09.435Z,51.70
2018-06-24T11:28:06.844Z,52.70
2018-06-24T11:30:35.464Z,52.60
2018-06-24T11:33:04.040Z,53.20
2018-06-24T11:35:32.553Z,52.60
2018-06-24T11:38:01.069Z,52.30
2018-06-24T11:40:29.559Z,52.80
2018-06-24T11:42:58.112Z,52.40
2018-06-24T11:45:26.602Z,53.30
2018-06-24T11:47:55.098Z,53.40
2018-06-24T11:50:23.600Z,53.30
2018-06-24T11:52:52.078Z,53.60
2018-06-24T11:57:48.739Z,52.50
2018-06-24T12:00:17.283Z,52.30
2018-06-24T12:02:45.849Z,51.80
2018-06-24T12:05:14.345Z,51.40
2018-06-24T12:07:42.885Z,51.50
2018-06-24T12:10:11.451Z,50.30
2018-06-24T12:12:39.959Z,50.40
2018-06-24T12:15:08.488Z,50.30
2018-06-24T12:17:36.965Z,51.00
2018-06-24T12:20:05.435Z,50.40
2018-06-24T12:22:33.973Z,50.40
2018-06-24T12:25:02.453Z,50.80
2018-06-24T12:27:30.912Z,50.80
2018-06-24T12:29:59.379Z,50.70
2018-06-24T12:34:56.027Z,51.70
2018-06-24T12:39:52.702Z,50.90
2018-06-24T12:42:21.114Z,50.80
2018-06-24T12:44:49.566Z,50.70
2018-06-24T12:47:18.018Z,50.50
2018-06-24T12:49:46.455Z,51.50
2018-06-24T12:52:15.006Z,50.50
2018-06-24T12:54:43.463Z,51.30
2018-06-24T12:57:11.987Z,50.70
2018-06-24T12:59:40.584Z,50.90
2018-06-24T13:02:08.854Z,51.50
2018-06-24T13:04:37.403Z,50.80
2018-06-24T13:07:06.072Z,51.10
2018-06-24T13:09:34.495Z,51.00
2018-06-24T13:12:02.971Z,51.00
2018-06-24T13:14:31.474Z,51.00
2018-06-24T13:19:28.096Z,52.00
2018-06-24T13:21:56.675Z,51.60
2018-06-24T13:24:25.312Z,51.00
2018-06-24T13:26:53.772Z,51.10
2018-06-24T13:29:22.298Z,51.10
2018-06-24T13:31:50.747Z,51.10
2018-06-24T13:34:19.204Z,49.80
2018-06-24T13:36:47.691Z,50.40
2018-06-24T13:39:16.100Z,50.80
2018-06-24T13:41:44.524Z,50.20
2018-06-24T13:44:13.032Z,49.80
2018-06-24T13:46:41.503Z,49.60
2018-06-24T13:49:09.975Z,50.00
2018-06-24T13:54:06.575Z,49.90
2018-06-24T13:56:35.087Z,51.10
2018-06-24T13:59:03.523Z,51.00
2018-06-24T14:01:31.952Z,50.60
2018-06-24T14:04:00.425Z,50.00
2018-06-24T14:06:28.821Z,49.40
2018-06-24T14:08:57.241Z,49.70
2018-06-24T14:11:25.708Z,51.30
2018-06-24T14:16:22.283Z,50.60
2018-06-24T14:21:18.859Z,51.30
2018-06-24T14:23:47.412Z,51.10
2018-06-24T14:26:15.910Z,52.40
2018-06-24T14:28:44.353Z,51.10
2018-06-24T14:33:41.018Z,52.30
2018-06-24T14:36:09.437Z,53.00
2018-06-24T14:38:37.878Z,53.00
2018-06-24T14:41:06.337Z,53.40
2018-06-24T14:43:34.850Z,53.70
2018-06-24T14:46:03.351Z,54.30
2018-06-24T14:48:31.830Z,55.20
2018-06-24T14:51:00.663Z,54.60
2018-06-24T14:53:29.338Z,54.00
2018-06-24T14:55:57.819Z,53.30
2018-06-24T14:58:26.398Z,53.50
2018-06-24T15:00:54.891Z,52.50
2018-06-24T15:03:23.368Z,52.20
2018-06-24T15:08:20.080Z,51.80
2018-06-24T15:10:48.539Z,52.10
2018-06-24T15:15:45.253Z,52.00
2018-06-24T15:18:13.694Z,52.40
2018-06-24T15:20:42.199Z,52.00
2018-06-24T15:23:10.634Z,51.30
2018-06-24T15:25:39.099Z,52.00
2018-06-24T15:28:07.528Z,52.40
2018-06-24T15:30:36.000Z,51.60
2018-06-24T15:35:32.617Z,52.00
2018-06-24T15:38:01.077Z,53.50
2018-06-24T15:40:29.594Z,52.40
2018-06-24T15:42:58.012Z,51.90
2018-06-24T15:45:26.874Z,52.50
2018-06-24T15:47:55.297Z,53.20
2018-06-24T15:50:23.728Z,53.00
2018-06-24T15:52:52.148Z,53.30
2018-06-24T15:55:20.563Z,53.10
2018-06-24T15:57:48.990Z,53.30
2018-06-24T16:00:17.457Z,52.50
2018-06-24T16:02:45.861Z,52.70
2018-06-24T16:05:14.286Z,52.40
2018-06-24T16:07:42.738Z,53.00
2018-06-24T16:10:11.176Z,52.90
2018-06-24T16:12:39.617Z,53.70
2018-06-24T16:15:08.044Z,53.00
2018-06-24T16:17:36.473Z,53.70
2018-06-24T16:22:33.034Z,53.30
2018-06-24T16:25:01.489Z,52.20
2018-06-24T16:27:29.923Z,52.10
2018-06-24T16:32:26.601Z,52.00
2018-06-24T16:34:55.007Z,52.10
2018-06-24T16:37:23.451Z,51.50
2018-06-24T16:39:51.884Z,51.60
2018-06-24T16:47:16.614Z,52.30
2018-06-24T16:49:45.067Z,53.00
2018-06-24T16:52:13.616Z,53.00
2018-06-24T16:54:42.033Z,53.00
2018-06-24T16:59:38.653Z,53.80
2018-06-24T17:02:07.142Z,53.50
2018-06-24T17:04:35.548Z,54.20
2018-06-24T17:07:04.038Z,54.50
2018-06-24T17:09:32.546Z,54.60
2018-06-24T17:12:00.987Z,55.00
2018-06-24T17:16:57.610Z,54.70
2018-06-24T17:19:26.044Z,55.10
2018-06-24T17:21:54.499Z,54.90
2018-06-24T17:24:22.920Z,54.90
2018-06-24T17:26:51.433Z,55.10
2018-06-24T17:31:48.062Z,55.10
2018-06-24T17:34:16.500Z,55.40
2018-06-24T17:36:44.994Z,55.40
2018-06-24T17:39:13.557Z,55.40
2018-06-24T17:41:42.966Z,55.00
2018-06-24T17:44:11.389Z,55.00
2018-06-24T17:46:39.792Z,54.50
2018-06-24T17:49:08.238Z,54.80
2018-06-24T17:51:36.654Z,54.70
2018-06-24T17:54:05.486Z,55.10
2018-06-24T17:56:33.931Z,54.90
2018-06-24T17:59:02.374Z,55.10
2018-06-24T18:03:58.955Z,54.90
2018-06-24T18:08:55.529Z,55.20
2018-06-24T18:13:52.137Z,55.50
2018-06-24T18:16:20.545Z,56.00
2018-06-24T18:18:48.992Z,56.30
2018-06-24T18:21:17.401Z,56.20
2018-06-24T18:26:14.045Z,56.30
2018-06-24T18:28:42.513Z,56.50
2018-06-24T18:31:10.920Z,56.40
2018-06-24T18:33:39.428Z,56.60
2018-06-24T18:36:07.856Z,56.70
2018-06-24T18:38:36.833Z,56.80
2018-06-24T18:41:05.253Z,56.70
2018-06-24T18:46:01.775Z,57.00
2018-06-24T18:48:30.246Z,56.90
2018-06-24T18:50:58.693Z,57.50
2018-06-24T18:53:27.176Z,57.50
2018-06-24T18:55:55.634Z,57.50
2018-06-24T18:58:24.317Z,57.50
2018-06-24T19:00:52.741Z,57.50
2018-06-24T19:03:21.158Z,57.50
2018-06-24T19:05:49.592Z,57.50
2018-06-24T19:08:17.991Z,57.50
2018-06-24T19:10:46.437Z,57.50
2018-06-24T19:15:43.065Z,57.80
2018-06-24T19:18:11.498Z,57.80
2018-06-24T19:20:40.050Z,58.10
2018-06-24T19:23:08.469Z,58.00
2018-06-24T19:25:36.905Z,57.90
2018-06-24T19:30:33.646Z,58.20
2018-06-24T19:33:02.077Z,58.60
2018-06-24T19:35:30.499Z,58.50
2018-06-24T19:37:58.934Z,59.30
2018-06-24T19:40:27.405Z,58.70
2018-06-24T19:42:55.836Z,58.90
2018-06-24T19:45:24.254Z,59.20
2018-06-24T19:47:52.652Z,59.30
2018-06-24T19:52:49.275Z,59.20
2018-06-24T19:55:17.689Z,59.40
2018-06-24T19:57:46.229Z,59.50
2018-06-24T20:00:14.774Z,59.50
2018-06-24T20:02:43.467Z,59.60
2018-06-24T20:05:11.924Z,59.60
2018-06-24T20:07:40.363Z,59.90
2018-06-24T20:10:08.801Z,59.90
2018-06-24T20:12:37.253Z,59.80
2018-06-24T20:15:05.782Z,59.80
2018-06-24T20:20:02.414Z,60.00
2018-06-24T20:22:30.808Z,60.20
2018-06-24T20:24:59.214Z,60.30
2018-06-24T20:27:27.644Z,60.50
2018-06-24T20:32:24.273Z,60.70
2018-06-24T20:34:52.675Z,60.80
2018-06-24T20:37:21.117Z,60.90
2018-06-24T20:39:49.504Z,61.10
2018-06-24T20:42:18.038Z,61.10
2018-06-24T20:44:46.472Z,61.20
2018-06-24T20:49:43.012Z,61.80
2018-06-24T20:52:11.421Z,61.80
2018-06-24T20:54:39.811Z,62.00
2018-06-24T20:57:08.232Z,62.30
2018-06-24T21:04:33.859Z,62.60
2018-06-24T21:07:02.277Z,62.70
2018-06-24T21:09:30.673Z,63.00
2018-06-24T21:11:59.115Z,63.10
2018-06-24T21:14:27.622Z,63.30
2018-06-24T21:16:56.069Z,63.60
2018-06-24T21:19:24.475Z,63.80
2018-06-24T21:29:21.705Z,64.40
2018-06-24T21:31:50.247Z,64.10
2018-06-24T21:34:18.743Z,64.60
2018-06-24T21:36:47.150Z,64.20
2018-06-24T21:39:15.564Z,63.30
2018-06-24T21:41:44.005Z,63.10
2018-06-24T21:44:12.409Z,63.10
2018-06-24T21:46:40.902Z,62.50
2018-06-24T21:49:09.298Z,62.80
2018-06-24T21:51:37.813Z,62.90
2018-06-24T21:54:06.257Z,62.60
2018-06-24T21:59:03.334Z,62.90
2018-06-24T22:01:31.834Z,62.80
2018-06-24T22:04:00.272Z,62.80
2018-06-24T22:06:28.698Z,62.70
2018-06-24T22:08:57.294Z,62.80
2018-06-24T22:11:25.696Z,63.00
2018-06-24T22:13:54.120Z,63.10
2018-06-24T22:16:22.517Z,63.20
2018-06-24T22:21:19.207Z,63.00
2018-06-24T22:23:47.770Z,63.70
2018-06-24T22:28:44.324Z,64.00
2018-06-24T22:31:12.743Z,63.80
2018-06-24T22:33:41.150Z,63.80
2018-06-24T22:38:37.645Z,64.10
2018-06-24T22:41:06.187Z,64.00
2018-06-24T22:43:34.613Z,64.00
2018-06-24T22:48:31.446Z,64.00
2018-06-24T22:50:59.845Z,64.00
2018-06-24T22:53:28.383Z,63.90
2018-06-24T22:58:24.961Z,64.30
2018-06-24T23:03:21.578Z,63.80
2018-06-24T23:05:50.708Z,64.10
2018-06-24T23:08:19.129Z,64.30
2018-06-24T23:10:47.515Z,64.20
2018-06-24T23:13:15.916Z,64.60
2018-06-24T23:18:12.520Z,64.40
2018-06-24T23:20:40.966Z,64.90
2018-06-24T23:23:09.469Z,65.10
2018-06-24T23:25:37.923Z,65.10
2018-06-24T23:28:06.390Z,65.00
2018-06-24T23:33:03.018Z,65.40
2018-06-24T23:35:31.436Z,65.50
2018-06-24T23:37:59.919Z,65.70
2018-06-24T23:40:28.345Z,66.30
2018-06-24T23:42:56.758Z,65.80
2018-06-24T23:45:25.418Z,65.90
2018-06-24T23:47:54.473Z,66.00
2018-06-24T23:50:22.895Z,66.30
2018-06-24T23:52:51.289Z,66.40
2018-06-24T23:55:19.720Z,66.20
2018-06-24T23:57:48.170Z,66.80
